Bunia Airport


Codes: FZKA/BUX
Name: Bunia Airport
City:
Country: Congo [DRC]
Elevation: 4045 ft.
Wikipedia:

Photos at Bunia Airport


   Photos courtesy of SpottingLog. You can add your own sightings and photos by signing up for a free trial today.



No photos found.

Weather at Bunia Airport


Time (UTC)DescriptionTempratureWindCloud coverageVisibilityPressureHumidity
23-May-2024 21:00Light Rain19°C2 mph, NE95%10000m1014hPa89%
24-May-2024 00:00Light Rain19°C0 mph, NE92%10000m1013hPa89%
24-May-2024 03:00Broken Clouds17°C2 mph, NW63%10000m1015hPa94%
24-May-2024 06:00Scattered Clouds21°C2 mph, W43%10000m1016hPa83%
24-May-2024 09:00Few Clouds27°C7 mph, SE24%10000m1014hPa53%
24-May-2024 12:00Light Rain28°C4 mph, SE29%10000m1010hPa47%
24-May-2024 15:00Light Rain22°C4 mph, W71%10000m1012hPa84%
24-May-2024 18:00Light Rain19°C2 mph, NW51%10000m1015hPa91%
24-May-2024 21:00Few Clouds18°C2 mph, NW17%10000m1016hPa93%
25-May-2024 00:00Broken Clouds18°C2 mph, NW54%10000m1014hPa93%
25-May-2024 03:00Overcast Clouds18°C2 mph, NE100%10000m1014hPa92%
25-May-2024 06:00Light Rain20°C2 mph, E99%10000m1016hPa91%
25-May-2024 09:00Light Rain20°C4 mph, SE100%6623m1016hPa96%
25-May-2024 12:00Light Rain20°C4 mph, E100%10000m1014hPa95%
25-May-2024 15:00Light Rain19°C2 mph, N100%10000m1015hPa95%
25-May-2024 18:00Light Rain17°C2 mph, N92%10000m1016hPa94%
25-May-2024 21:00Broken Clouds17°C0 mph, NE68%10000m1016hPa91%
26-May-2024 00:00Broken Clouds17°C2 mph, NE75%10000m1015hPa91%
26-May-2024 03:00Light Rain17°C2 mph, E90%10000m1016hPa91%
26-May-2024 06:00Light Rain20°C2 mph, NE81%10000m1017hPa85%
26-May-2024 09:00Moderate Rain24°C0 mph, NE59%9401m1016hPa72%
26-May-2024 12:00Moderate Rain25°C2 mph, E77%10000m1013hPa70%
26-May-2024 15:00Light Rain22°C2 mph, E96%10000m1013hPa83%
26-May-2024 18:00Moderate Rain18°C4 mph, N95%10000m1017hPa95%
26-May-2024 21:00Light Rain18°C2 mph, N68%10000m1017hPa92%
27-May-2024 00:00Broken Clouds17°C0 mph, N59%10000m1016hPa92%
27-May-2024 03:00Scattered Clouds17°C2 mph, N30%10000m1016hPa91%
27-May-2024 06:00Few Clouds21°C2 mph, E22%10000m1017hPa79%
27-May-2024 09:00Scattered Clouds28°C4 mph, SE32%10000m1014hPa52%
27-May-2024 12:00Broken Clouds28°C7 mph, SE55%10000m1011hPa49%
27-May-2024 15:00Light Rain23°C7 mph, NE72%10000m1013hPa74%
27-May-2024 18:00Light Rain19°C2 mph, N83%10000m1015hPa90%
27-May-2024 21:00Light Rain18°C0 mph, NW84%10000m1016hPa90%
28-May-2024 00:00Light Rain18°C2 mph, E76%10000m1015hPa90%
28-May-2024 03:00Broken Clouds17°C2 mph, E73%10000m1016hPa91%
28-May-2024 06:00Broken Clouds22°C4 mph, SE74%10000m1016hPa80%
28-May-2024 09:00Light Rain28°C7 mph, SE38%10000m1014hPa53%
28-May-2024 12:00Scattered Clouds29°C7 mph, SE42%10000m1011hPa42%
28-May-2024 15:00Broken Clouds26°C4 mph, SE67%10000m1011hPa62%
28-May-2024 18:00Light Rain21°C2 mph, E74%10000m1014hPa76%